Time;durP1;ratioP1;P1;durP2;ratioP2;P2;SDS_P1;SDS_P2;PMS_P1;PMS_P2;Temp;Humidity;BMP_temperature;BMP_pressure;BME280_temperature;BME280_humidity;BME280_pressure;Samples;Min_cycle;Max_cycle;Signal;HPM_P1;HPM_P2
2022/02/20 00:00:22;;;;;;;6.35;1.20;;;6.50;65.60;;;;;;5062016;28;20051;-79
2022/02/20 06:02:56;;;;;;;2.42;0.60;;;6.90;99.90;;;;;;4967560;28;20053;-87
2022/02/20 06:05:23;;;;;;;1.73;0.50;;;7.00;99.90;;;;;;4942100;28;20057;-87
2022/02/20 06:07:50;;;;;;;2.38;0.70;;;7.00;99.90;;;;;;4970947;28;20134;-88
2022/02/20 06:10:17;;;;;;;1.70;0.57;;;7.00;99.90;;;;;;4967801;28;20480;-89
2022/02/20 06:12:45;;;;;;;2.80;0.63;;;7.00;99.90;;;;;;4976590;28;20055;-90
2022/02/20 06:15:13;;;;;;;2.85;0.75;;;5.90;99.90;;;;;;4965161;28;20134;-89
2022/02/20 06:17:40;;;;;;;3.47;0.60;;;7.00;99.90;;;;;;4957324;29;20415;-89
2022/02/20 06:20:09;;;;;;;4.03;0.77;;;6.90;99.90;;;;;;4957427;29;20141;-89
2022/02/20 06:22:36;;;;;;;2.60;0.47;;;7.00;99.90;;;;;;4963025;28;20572;-88
2022/02/20 06:25:04;;;;;;;1.63;0.50;;;6.90;99.90;;;;;;4967063;28;20138;-87
2022/02/20 06:27:31;;;;;;;3.45;0.50;;;6.90;99.90;;;;;;4963226;28;20108;-87
2022/02/20 06:29:58;;;;;;;3.10;0.82;;;7.10;99.90;;;;;;4970688;28;20074;-87
2022/02/20 06:32:26;;;;;;;3.03;0.88;;;7.10;99.90;;;;;;4969354;28;20137;-87
2022/02/20 06:34:53;;;;;;;2.38;0.60;;;7.00;99.90;;;;;;4972514;28;20047;-87
2022/02/20 06:37:21;;;;;;;3.47;0.70;;;6.90;98.10;;;;;;4960749;28;20153;-87
2022/02/20 06:39:49;;;;;;;4.13;0.73;;;6.90;98.00;;;;;;4968868;28;20441;-86
2022/02/20 06:42:17;;;;;;;1.90;0.50;;;6.90;98.00;;;;;;4965271;28;20083;-84
2022/02/20 06:44:45;;;;;;;1.67;0.52;;;6.90;97.90;;;;;;4973850;28;20050;-86
2022/02/20 06:47:12;;;;;;;3.83;0.77;;;7.00;97.90;;;;;;4964649;28;20400;-86
2022/02/20 06:49:39;;;;;;;2.25;0.47;;;7.00;97.90;;;;;;4966613;28;20082;-86
2022/02/20 06:52:07;;;;;;;1.15;0.50;;;7.00;97.90;;;;;;4970863;28;20133;-85
2022/02/20 06:54:35;;;;;;;2.08;0.60;;;7.00;98.00;;;;;;4966389;28;20131;-87
2022/02/20 06:57:02;;;;;;;3.22;0.77;;;7.00;97.80;;;;;;4965144;28;20051;-86
2022/02/20 06:59:29;;;;;;;1.73;0.45;;;7.00;97.70;;;;;;4966309;28;20468;-85
2022/02/20 07:01:57;;;;;;;0.80;0.38;;;7.00;97.60;;;;;;4968643;28;20154;-86
2022/02/20 07:04:24;;;;;;;3.50;0.70;;;7.00;97.50;;;;;;4959188;28;20462;-85
2022/02/20 07:06:51;;;;;;;2.10;0.60;;;7.00;97.50;;;;;;4961333;28;20087;-85
2022/02/20 07:09:18;;;;;;;1.88;0.60;;;7.00;97.50;;;;;;4965276;28;20137;-86
2022/02/20 07:11:47;;;;;;;4.40;0.60;;;7.10;97.50;;;;;;4964209;28;20131;-86
2022/02/20 07:14:14;;;;;;;1.95;0.70;;;7.00;97.40;;;;;;4963483;28;20134;-85
2022/02/20 07:16:41;;;;;;;4.35;0.82;;;7.10;97.50;;;;;;4964086;28;20055;-85
2022/02/20 07:19:08;;;;;;;2.95;0.68;;;7.10;97.40;;;;;;4968666;28;20145;-85
2022/02/20 07:21:35;;;;;;;2.53;0.60;;;7.10;97.30;;;;;;4967538;28;20126;-86
2022/02/20 07:24:02;;;;;;;1.98;0.60;;;7.10;97.30;;;;;;4967752;28;20055;-85
2022/02/20 07:26:32;;;;;;;2.00;0.60;;;7.10;97.30;;;;;;4963830;28;20063;-86
2022/02/20 07:29:00;;;;;;;2.60;0.60;;;7.10;97.30;;;;;;4967399;28;20609;-84
2022/02/20 07:31:28;;;;;;;2.38;0.65;;;7.10;97.30;;;;;;4963040;28;20476;-85
2022/02/20 07:33:55;;;;;;;3.15;0.75;;;7.10;97.40;;;;;;4962629;28;20051;-84
2022/02/20 07:36:22;;;;;;;2.50;0.70;;;7.20;97.40;;;;;;4959024;28;20097;-82
2022/02/20 07:38:50;;;;;;;2.03;0.60;;;7.20;97.30;;;;;;4963971;28;20053;-85
2022/02/20 07:41:17;;;;;;;3.90;0.63;;;7.20;97.30;;;;;;4970534;28;20409;-84
2022/02/20 07:43:48;;;;;;;2.72;0.65;;;7.20;97.30;;;;;;4963801;28;20047;-85
2022/02/20 07:46:17;;;;;;;2.17;0.50;;;7.20;97.30;;;;;;4964296;28;20047;-84
2022/02/20 07:48:46;;;;;;;1.98;0.70;;;7.30;97.30;;;;;;4938954;29;20537;-85
2022/02/20 07:51:13;;;;;;;1.88;0.60;;;7.30;97.20;;;;;;4967740;28;20137;-85
2022/02/20 07:53:42;;;;;;;2.08;0.70;;;7.30;97.10;;;;;;4967438;28;20474;-86
2022/02/20 07:56:09;;;;;;;3.15;0.70;;;7.30;97.00;;;;;;4966943;28;20047;-84
2022/02/20 07:58:38;;;;;;;2.13;0.50;;;7.30;97.00;;;;;;4954698;28;20058;-84
2022/02/20 08:01:06;;;;;;;3.25;0.57;;;7.30;97.00;;;;;;4948793;28;20047;-84
2022/02/20 08:03:35;;;;;;;2.33;0.68;;;7.40;97.10;;;;;;4974010;28;20138;-84
2022/02/20 08:06:03;;;;;;;3.08;0.50;;;7.40;97.10;;;;;;4961651;28;20130;-85
2022/02/20 08:08:31;;;;;;;1.63;0.60;;;7.40;97.10;;;;;;4962227;28;20101;-83
2022/02/20 08:10:58;;;;;;;2.00;0.60;;;7.40;97.00;;;;;;4975942;28;20134;-82
2022/02/20 08:13:25;;;;;;;2.40;0.55;;;7.50;96.90;;;;;;4977800;28;20051;-82
2022/02/20 08:15:54;;;;;;;1.65;0.60;;;7.50;96.70;;;;;;4977875;28;20046;-82
2022/02/20 08:18:21;;;;;;;2.45;0.63;;;7.50;96.70;;;;;;4977767;28;20055;-83
2022/02/20 08:20:49;;;;;;;1.90;0.50;;;7.50;96.70;;;;;;4971477;28;20059;-82
2022/02/20 08:23:17;;;;;;;2.55;0.52;;;7.80;97.80;;;;;;4971476;28;20133;-84
2022/02/20 08:25:45;;;;;;;2.47;0.60;;;7.80;96.60;;;;;;4962655;28;20053;-83
2022/02/20 08:28:12;;;;;;;1.67;0.50;;;7.70;96.30;;;;;;4961664;28;20097;-82
2022/02/20 08:30:40;;;;;;;1.95;0.40;;;;;;;;;;4958402;28;20081;-84
2022/02/20 08:33:08;;;;;;;1.75;0.55;;;;;;;;;;4958429;29;20102;-83
2022/02/20 08:35:35;;;;;;;2.20;0.57;;;;;;;;;;4963204;28;20042;-81
2022/02/20 08:38:07;;;;;;;2.33;0.50;;;;;;;;;;4977474;28;20059;-81
2022/02/20 08:40:36;;;;;;;1.95;0.50;;;;;;;;;;4970190;28;20071;-82
2022/02/20 08:43:04;;;;;;;1.45;0.50;;;;;;;;;;4964110;28;20052;-82
2022/02/20 08:45:32;;;;;;;2.05;0.57;;;;;;;;;;4968700;28;20042;-83
2022/02/20 08:47:59;;;;;;;1.25;0.40;;;;;;;;;;4977392;28;20049;-83
2022/02/20 08:50:28;;;;;;;3.20;0.55;;;;;;;;;;4967508;28;20053;-81
2022/02/20 08:52:55;;;;;;;1.83;0.50;;;;;;;;;;4967825;28;20047;-82
2022/02/20 08:55:24;;;;;;;1.95;0.55;;;;;;;;;;4969807;28;20440;-82
2022/02/20 08:57:52;;;;;;;1.35;0.50;;;;;;;;;;4963034;28;20075;-82
2022/02/20 09:00:20;;;;;;;2.90;0.80;;;;;;;;;;4969558;28;20129;-84
2022/02/20 09:02:47;;;;;;;2.88;0.50;;;;;;;;;;4972667;28;20101;-87
2022/02/20 09:05:15;;;;;;;2.15;0.60;;;;;;;;;;4965106;28;20762;-84
2022/02/20 09:07:42;;;;;;;2.22;0.50;;;;;;;;;;4975271;28;20051;-85
2022/02/20 09:10:10;;;;;;;1.73;0.40;;;;;;;;;;4972568;28;20150;-87
2022/02/20 09:12:40;;;;;;;2.15;0.75;;;;;;;;;;4956103;29;20483;-87
2022/02/20 09:15:09;;;;;;;2.55;0.60;;;;;;;;;;4956102;29;20599;-86
2022/02/20 09:17:37;;;;;;;1.85;0.60;;;;;;;;;;4962746;28;20689;-84
2022/02/20 09:20:06;;;;;;;1.67;0.30;;;;;;;;;;4974391;28;20043;-87
2022/02/20 09:22:34;;;;;;;2.42;0.63;;;;;;;;;;4964659;28;20039;-86
2022/02/20 09:25:01;;;;;;;2.63;0.60;;;;;;;;;;4956704;28;20082;-86
2022/02/20 09:27:29;;;;;;;1.48;0.50;;;;;;;;;;4973269;28;20066;-83
2022/02/20 09:29:58;;;;;;;2.47;0.60;;;;;;;;;;4972262;28;20510;-84
2022/02/20 09:32:27;;;;;;;1.80;0.50;;;;;;;;;;4967580;28;20050;-83
2022/02/20 09:34:54;;;;;;;2.55;0.65;;;;;;;;;;4968872;28;20055;-84
2022/02/20 09:37:22;;;;;;;3.42;0.60;;;;;;;;;;4962156;28;20102;-82
2022/02/20 09:39:49;;;;;;;2.60;0.60;;;;;;;;;;4973871;28;20480;-84
2022/02/20 09:42:16;;;;;;;1.67;0.57;;;;;;;;;;4973908;28;20057;-83
2022/02/20 09:44:45;;;;;;;1.98;0.50;;;;;;;;;;4973779;28;20050;-82
2022/02/20 09:47:14;;;;;;;2.17;0.60;;;;;;;;;;4969055;28;20057;-82
2022/02/20 09:49:41;;;;;;;2.13;0.68;;;;;;;;;;4954345;29;20071;-84
2022/02/20 09:52:09;;;;;;;1.08;0.45;;;;;;;;;;4955033;28;20117;-85
2022/02/20 09:54:36;;;;;;;2.05;0.50;;;;;;;;;;4965423;28;20134;-80
2022/02/20 09:57:04;;;;;;;3.08;0.60;;;;;;;;;;4971396;28;20499;-84
2022/02/20 09:59:32;;;;;;;2.45;0.70;;;;;;;;;;4973418;28;20563;-82
2022/02/20 10:02:07;;;;;;;1.05;0.40;;;;;;;;;;4972520;28;20054;-84
2022/02/20 10:04:40;;;;;;;;;;;;;;;;;;4956350;28;20094;-82
2022/02/20 10:07:08;;;;;;;2.40;0.60;;;;;;;;;;4971554;28;19965;-83
2022/02/20 10:09:39;;;;;;;1.55;0.50;;;;;;;;;;4971174;28;20054;-83
2022/02/20 10:12:20;;;;;;;2.28;0.70;;;;;;;;;;4966418;28;20480;-83
2022/02/20 10:14:48;;;;;;;1.88;0.60;;;;;;;;;;4936455;29;20055;-83
2022/02/20 10:17:17;;;;;;;1.60;0.63;;;;;;;;;;4954719;28;20055;-83
2022/02/20 10:19:58;;;;;;;2.22;0.60;;;;;;;;;;4954087;28;20145;-83
2022/02/20 10:22:30;;;;;;;1.33;0.30;;;;;;;;;;4970346;28;20051;-80
2022/02/20 10:25:10;;;;;;;1.65;0.40;;;;;;;;;;4971878;28;20190;-83
2022/02/20 10:27:43;;;;;;;1.70;0.50;;;;;;;;;;4968824;28;20059;-79
2022/02/20 10:30:20;;;;;;;1.67;0.50;;;;;;;;;;4966884;28;20130;-85
2022/02/20 10:33:03;;;;;;;0.80;0.40;;;;;;;;;;4972061;28;20133;-83
2022/02/20 10:35:34;;;;;;;1.00;0.40;;;;;;;;;;4971124;28;20403;-87
2022/02/20 10:38:07;;;;;;;1.00;0.35;;;;;;;;;;4954329;28;20051;-83
2022/02/20 10:40:38;;;;;;;2.33;0.70;;;;;;;;;;4956446;28;20058;-85
2022/02/20 10:43:08;;;;;;;1.02;0.40;;;;;;;;;;4968003;28;20138;-84
2022/02/20 10:45:37;;;;;;;1.65;0.50;;;;;;;;;;4955258;28;20047;-84
2022/02/20 10:48:05;;;;;;;1.77;0.60;;;;;;;;;;4972439;28;20137;-85
2022/02/20 10:50:34;;;;;;;1.85;0.50;;;;;;;;;;4962612;28;20420;-84
2022/02/20 10:53:19;;;;;;;1.60;0.60;;;;;;;;;;4957052;28;20071;-84
2022/02/20 10:55:48;;;;;;;4.20;1.30;;;;;;;;;;4957133;28;20051;-84
2022/02/20 10:58:18;;;;;;;2.67;0.50;;;;;;;;;;4963279;28;20052;-83
2022/02/20 11:00:50;;;;;;;1.88;0.60;;;;;;;;;;4960903;28;20051;-82
2022/02/20 11:03:18;;;;;;;1.27;0.50;;;;;;;;;;4954337;28;20059;-83
2022/02/20 11:05:47;;;;;;;1.00;0.20;;;;;;;;;;4970598;28;20051;-85
2022/02/20 11:08:18;;;;;;;2.70;0.47;;;;;;;;;;4953567;28;20142;-85
2022/02/20 11:10:47;;;;;;;2.10;0.50;;;;;;;;;;4951454;29;20059;-85
2022/02/20 11:13:16;;;;;;;1.30;0.40;;;10.70;99.90;;;;;;4967067;28;20113;-86
2022/02/20 11:15:45;;;;;;;1.30;0.40;;;10.70;99.90;;;;;;4970183;28;20130;-85
2022/02/20 11:18:16;;;;;;;1.38;0.30;;;10.40;99.90;;;;;;4957914;28;20142;-82
2022/02/20 11:20:47;;;;;;;1.63;0.25;;;10.40;99.90;;;;;;4955216;28;20054;-82
2022/02/20 11:23:23;;;;;;;1.23;0.35;;;10.40;99.90;;;;;;4958958;28;20134;-84
2022/02/20 11:25:52;;;;;;;1.30;0.50;;;10.60;99.90;;;;;;4957567;28;20061;-84
2022/02/20 11:28:19;;;;;;;1.42;0.40;;;10.60;99.60;;;;;;4963932;28;20130;-84
2022/02/20 11:30:47;;;;;;;0.90;0.35;;;10.60;99.60;;;;;;4954305;28;20089;-83
2022/02/20 11:33:14;;;;;;;2.90;0.40;;;10.60;99.80;;;;;;4953769;28;20560;-83
2022/02/20 11:35:44;;;;;;;3.60;0.50;;;10.60;99.80;;;;;;4952601;29;20071;-84
2022/02/20 11:38:18;;;;;;;1.42;0.30;;;10.50;99.20;;;;;;4958600;28;20046;-83
2022/02/20 11:40:56;;;;;;;0.90;0.30;;;10.50;98.90;;;;;;4952962;28;20053;-84
2022/02/20 11:43:38;;;;;;;1.80;0.60;;;10.50;98.80;;;;;;4968525;28;20711;-84
2022/02/20 11:46:09;;;;;;;1.20;0.40;;;10.80;98.00;;;;;;4970511;28;20039;-84
2022/02/20 11:48:36;;;;;;;1.02;0.35;;;10.80;97.20;;;;;;4971607;28;20134;-84
2022/02/20 11:51:20;;;;;;;1.55;0.30;;;10.70;97.00;;;;;;4958431;28;20083;-84
2022/02/20 11:53:49;;;;;;;1.05;0.32;;;10.70;96.80;;;;;;4953364;28;20111;-85
2022/02/20 11:56:18;;;;;;;1.65;0.45;;;10.90;96.70;;;;;;4969280;28;20188;-84
2022/02/20 11:58:47;;;;;;;1.50;0.40;;;11.00;96.20;;;;;;4967694;28;20047;-85
2022/02/20 12:01:16;;;;;;;1.10;0.20;;;10.90;95.90;;;;;;4959826;28;20066;-85
2022/02/20 12:04:05;;;;;;;1.92;0.50;;;11.00;95.80;;;;;;4970621;28;20512;-83
2022/02/20 12:06:37;;;;;;;1.38;0.40;;;11.00;95.80;;;;;;4965611;28;20131;-83
2022/02/20 12:09:26;;;;;;;1.83;0.50;;;11.00;95.80;;;;;;4959724;28;20047;-82
2022/02/20 12:11:53;;;;;;;1.63;0.40;;;10.80;95.90;;;;;;4970699;28;20055;-84
2022/02/20 12:14:25;;;;;;;2.20;0.50;;;10.90;95.90;;;;;;4964399;28;20453;-82
2022/02/20 12:16:54;;;;;;;2.08;0.43;;;10.80;95.90;;;;;;4969333;28;20514;-85
2022/02/20 12:19:26;;;;;;;2.03;0.50;;;10.80;95.90;;;;;;4954687;28;20572;-82
2022/02/20 12:22:06;;;;;;;2.88;0.45;;;10.80;95.90;;;;;;4965915;28;20050;-82
2022/02/20 12:24:48;;;;;;;1.77;0.50;;;10.70;95.90;;;;;;4962477;28;20070;-83
2022/02/20 12:27:19;;;;;;;1.42;0.40;;;10.90;95.80;;;;;;4961834;28;20061;-83
2022/02/20 12:29:50;;;;;;;2.00;0.60;;;10.80;95.70;;;;;;4953375;28;20069;-85
2022/02/20 12:32:36;;;;;;;1.17;0.38;;;10.70;95.90;;;;;;4956262;28;20047;-84
2022/02/20 12:35:17;;;;;;;1.92;0.50;;;10.60;95.90;;;;;;4951608;28;20057;-83
2022/02/20 12:37:50;;;;;;;2.47;0.60;;;10.60;96.20;;;;;;4954512;28;20067;-82
2022/02/20 12:40:24;;;;;;;2.05;0.80;;;10.70;95.90;;;;;;4951911;28;20134;-83
2022/02/20 12:42:58;;;;;;;1.77;0.50;;;10.60;96.00;;;;;;4952165;28;20051;-81
2022/02/20 12:45:29;;;;;;;1.15;0.43;;;10.60;96.00;;;;;;4951899;28;20481;-81
2022/02/20 12:47:58;;;;;;;4.68;1.60;;;10.70;96.10;;;;;;4959253;28;20057;-83
2022/02/20 12:50:29;;;;;;;4.07;1.25;;;10.70;96.20;;;;;;4953576;28;20457;-82
2022/02/20 12:52:57;;;;;;;1.83;0.50;;;10.70;96.30;;;;;;4952341;28;20142;-84
2022/02/20 12:55:27;;;;;;;1.77;0.60;;;10.70;96.20;;;;;;4954986;28;20464;-84
2022/02/20 12:58:00;;;;;;;1.27;0.40;;;10.60;96.20;;;;;;4967127;28;20130;-83
2022/02/20 13:00:29;;;;;;;1.77;0.60;;;10.70;96.30;;;;;;4961071;28;20496;-83
2022/02/20 13:02:57;;;;;;;2.42;0.60;;;10.60;96.20;;;;;;4955295;28;20043;-82
2022/02/20 13:05:31;;;;;;;1.95;0.60;;;10.70;96.10;;;;;;4955307;28;20059;-82
2022/02/20 13:08:00;;;;;;;1.17;0.32;;;10.70;96.30;;;;;;4961164;28;20146;-82
2022/02/20 13:10:31;;;;;;;1.63;0.40;;;10.70;96.30;;;;;;4954111;28;20468;-83
2022/02/20 13:13:06;;;;;;;1.63;0.50;;;10.90;96.20;;;;;;4962147;28;20505;-82
2022/02/20 13:15:47;;;;;;;3.03;0.50;;;10.70;96.20;;;;;;4961279;28;20194;-81
2022/02/20 13:18:18;;;;;;;1.73;0.40;;;10.90;96.30;;;;;;4954647;28;20058;-83
2022/02/20 13:20:51;;;;;;;1.17;0.52;;;10.80;96.10;;;;;;4962452;28;20053;-84
2022/02/20 13:23:27;;;;;;;1.90;0.40;;;10.90;96.20;;;;;;4960348;28;20066;-85
2022/02/20 13:26:04;;;;;;;1.80;0.50;;;11.00;96.00;;;;;;4956073;28;20698;-85
2022/02/20 13:28:33;;;;;;;2.17;0.63;;;10.90;96.10;;;;;;4959160;28;20082;-84
2022/02/20 13:31:03;;;;;;;3.33;0.95;;;11.00;96.10;;;;;;4958776;28;20054;-83
2022/02/20 13:33:43;;;;;;;1.67;0.40;;;11.00;96.00;;;;;;4958888;28;20133;-83
2022/02/20 13:36:12;;;;;;;1.83;0.45;;;11.10;95.90;;;;;;4955126;28;20548;-82
2022/02/20 13:38:44;;;;;;;1.25;0.40;;;11.20;96.10;;;;;;4955224;28;20171;-81
2022/02/20 13:41:14;;;;;;;1.65;0.60;;;11.20;95.80;;;;;;4954904;28;20062;-82
2022/02/20 13:43:47;;;;;;;1.40;0.50;;;11.30;95.80;;;;;;4954340;28;20047;-83
2022/02/20 13:46:17;;;;;;;2.53;0.68;;;11.30;95.80;;;;;;4937563;29;20051;-83
2022/02/20 13:48:51;;;;;;;2.00;0.60;;;11.20;95.40;;;;;;4965644;28;20149;-82
2022/02/20 13:51:26;;;;;;;2.25;0.80;;;11.30;95.30;;;;;;4972936;28;20062;-82
2022/02/20 13:54:00;;;;;;;1.67;0.55;;;11.20;95.30;;;;;;4959117;28;20571;-82
2022/02/20 13:56:51;;;;;;;1.87;0.50;;;11.40;95.30;;;;;;4955318;28;20043;-82
2022/02/20 13:59:20;;;;;;;1.95;0.55;;;11.40;95.40;;;;;;4955393;28;20134;-81
2022/02/20 14:01:52;;;;;;;1.13;0.47;;;11.50;94.60;;;;;;4953604;28;20106;-82
2022/02/20 14:04:33;;;;;;;1.48;0.50;;;11.50;92.60;;;;;;4954311;28;20122;-81
2022/02/20 14:07:05;;;;;;;1.67;0.50;;;11.70;94.00;;;;;;4965622;28;20106;-83
2022/02/20 14:09:39;;;;;;;1.50;0.40;;;11.90;91.70;;;;;;4971284;28;20055;-83
2022/02/20 14:12:16;;;;;;;1.35;0.60;;;11.90;91.10;;;;;;4967644;28;20501;-83
2022/02/20 14:15:03;;;;;;;2.15;0.50;;;11.60;91.90;;;;;;4953951;28;20066;-82
2022/02/20 14:17:52;;;;;;;1.60;0.45;;;11.40;92.10;;;;;;4958533;28;20469;-84
2022/02/20 14:20:22;;;;;;;1.10;0.40;;;11.40;92.20;;;;;;4953652;29;20058;-83
2022/02/20 14:22:50;;;;;;;1.48;0.40;;;11.50;91.70;;;;;;4963328;28;20134;-82
2022/02/20 14:25:19;;;;;;;0.95;0.35;;;11.30;91.30;;;;;;4968276;28;20919;-83
2022/02/20 14:27:54;;;;;;;1.75;0.63;;;11.20;91.00;;;;;;4971376;28;20562;-82
2022/02/20 14:30:34;;;;;;;1.67;0.40;;;11.20;91.10;;;;;;4973150;28;20051;-82
2022/02/20 14:33:08;;;;;;;1.42;0.40;;;11.10;91.20;;;;;;4973083;28;20126;-82
2022/02/20 14:35:38;;;;;;;1.67;0.43;;;11.10;91.30;;;;;;4970891;28;20133;-81
2022/02/20 14:38:08;;;;;;;1.88;0.55;;;11.00;91.50;;;;;;4953499;29;20061;-82
2022/02/20 14:40:38;;;;;;;2.17;0.60;;;11.00;91.70;;;;;;4954183;28;20097;-82
2022/02/20 14:43:10;;;;;;;1.42;0.40;;;11.10;91.80;;;;;;4954912;28;20047;-80
2022/02/20 14:45:41;;;;;;;1.50;0.50;;;11.00;91.60;;;;;;4963079;28;20058;-80
2022/02/20 14:48:09;;;;;;;1.70;0.50;;;11.00;91.50;;;;;;4954567;28;20051;-81
2022/02/20 14:50:37;;;;;;;1.90;0.47;;;11.00;91.60;;;;;;4966047;28;20587;-80
2022/02/20 14:53:05;;;;;;;2.00;0.50;;;11.00;91.70;;;;;;4972820;28;20921;-80
2022/02/20 14:55:33;;;;;;;3.30;0.60;;;10.90;91.90;;;;;;4963450;28;20079;-82
2022/02/20 14:58:00;;;;;;;2.45;0.57;;;10.90;92.00;;;;;;4953239;29;20057;-82
2022/02/20 15:00:29;;;;;;;2.17;0.50;;;10.90;92.00;;;;;;4952960;28;20102;-82
2022/02/20 15:02:58;;;;;;;1.67;0.45;;;10.90;91.90;;;;;;4968190;28;20106;-81
2022/02/20 15:05:26;;;;;;;1.92;0.50;;;10.90;91.80;;;;;;4964784;28;20047;-82
2022/02/20 15:07:54;;;;;;;1.52;0.40;;;10.90;91.80;;;;;;4954214;28;20819;-82
2022/02/20 15:10:21;;;;;;;0.77;0.32;;;10.90;92.00;;;;;;4963617;28;20571;-82
2022/02/20 15:12:48;;;;;;;1.27;0.30;;;10.90;92.00;;;;;;4952918;29;20489;-82
2022/02/20 15:15:16;;;;;;;1.33;0.45;;;10.90;92.10;;;;;;4958421;28;20126;-82
2022/02/20 15:17:45;;;;;;;2.08;0.50;;;10.90;92.00;;;;;;4971789;28;20099;-83
2022/02/20 15:20:13;;;;;;;1.20;0.40;;;10.90;91.90;;;;;;4971701;28;20086;-83
2022/02/20 15:22:41;;;;;;;2.42;0.82;;;10.90;91.90;;;;;;4952827;29;20051;-82
2022/02/20 15:25:09;;;;;;;2.67;1.00;;;10.80;92.00;;;;;;4953023;28;20111;-83
2022/02/20 15:27:37;;;;;;;4.38;1.80;;;10.80;92.10;;;;;;4952759;29;20065;-83
2022/02/20 15:30:05;;;;;;;1.83;0.65;;;10.80;92.20;;;;;;4952618;29;20583;-83
2022/02/20 15:32:33;;;;;;;1.88;0.40;;;10.80;92.10;;;;;;4952824;28;20137;-82
2022/02/20 15:35:01;;;;;;;1.13;0.40;;;10.80;92.30;;;;;;4966861;28;20039;-82
2022/02/20 15:37:30;;;;;;;0.95;0.40;;;10.80;92.10;;;;;;4952821;29;20074;-83
2022/02/20 15:39:57;;;;;;;1.25;0.40;;;10.80;92.10;;;;;;4952611;29;20692;-83
2022/02/20 15:42:24;;;;;;;1.73;0.50;;;10.80;92.10;;;;;;4952388;29;20393;-83
2022/02/20 15:44:53;;;;;;;1.48;0.50;;;10.70;92.10;;;;;;4958755;28;20054;-82
2022/02/20 15:47:21;;;;;;;1.42;0.38;;;10.70;92.20;;;;;;4955948;28;20106;-85
2022/02/20 15:49:48;;;;;;;1.52;0.50;;;10.60;92.30;;;;;;4971450;28;20042;-82
2022/02/20 15:52:17;;;;;;;1.20;0.50;;;10.60;92.40;;;;;;4971649;28;20090;-83
2022/02/20 15:54:44;;;;;;;1.45;0.60;;;10.60;92.50;;;;;;4964617;28;20520;-83
2022/02/20 15:57:13;;;;;;;1.58;0.40;;;10.60;92.60;;;;;;4952385;29;20058;-83
2022/02/20 15:59:43;;;;;;;1.38;0.50;;;10.60;92.70;;;;;;4969312;28;20124;-83
2022/02/20 16:02:10;;;;;;;1.83;0.60;;;10.50;92.80;;;;;;4970862;28;20145;-84
2022/02/20 16:04:37;;;;;;;1.48;0.60;;;10.50;92.80;;;;;;4966528;28;20153;-84
2022/02/20 16:07:05;;;;;;;2.45;0.50;;;10.50;92.90;;;;;;4952686;29;20090;-85
2022/02/20 16:09:33;;;;;;;1.13;0.40;;;10.50;92.90;;;;;;4950528;29;20138;-84
2022/02/20 16:12:05;;;;;;;1.27;0.50;;;10.50;93.10;;;;;;4959185;28;20556;-83
2022/02/20 16:14:32;;;;;;;1.35;0.50;;;10.40;93.20;;;;;;4967224;28;20074;-86
2022/02/20 16:16:59;;;;;;;1.30;0.60;;;10.40;93.30;;;;;;4956918;28;20459;-84
2022/02/20 16:19:26;;;;;;;2.42;0.60;;;10.50;93.40;;;;;;4957526;28;20504;-85
2022/02/20 16:21:53;;;;;;;1.98;0.70;;;10.50;93.50;;;;;;4967181;28;20051;-85
2022/02/20 16:24:21;;;;;;;2.45;0.60;;;10.40;93.60;;;;;;4951974;29;20481;-85
2022/02/20 16:26:51;;;;;;;2.30;0.55;;;10.40;93.70;;;;;;4942874;28;20384;-85
2022/02/20 16:29:18;;;;;;;2.03;0.70;;;10.40;93.80;;;;;;4971767;28;20054;-85
2022/02/20 16:31:46;;;;;;;2.20;0.70;;;10.40;93.80;;;;;;4958326;28;20051;-85
2022/02/20 16:34:13;;;;;;;2.13;0.70;;;10.40;93.80;;;;;;4972925;28;20054;-85
2022/02/20 16:36:41;;;;;;;2.42;0.82;;;10.40;93.80;;;;;;4975678;28;20057;-85
2022/02/20 16:39:09;;;;;;;2.25;0.60;;;10.40;93.90;;;;;;4975029;28;20050;-84
2022/02/20 16:41:37;;;;;;;1.85;0.80;;;10.40;94.00;;;;;;4972710;28;20057;-85
2022/02/20 16:44:06;;;;;;;1.30;0.43;;;10.30;94.00;;;;;;4964561;28;20133;-84
2022/02/20 16:46:35;;;;;;;2.65;0.60;;;10.30;94.10;;;;;;4971646;28;20122;-84
2022/02/20 16:49:05;;;;;;;2.95;0.65;;;10.30;94.20;;;;;;4961828;28;20043;-84
2022/02/20 16:51:33;;;;;;;0.93;0.40;;;10.30;94.10;;;;;;4962813;28;20378;-85
2022/02/20 16:54:00;;;;;;;1.33;0.40;;;10.30;94.20;;;;;;4956317;29;20061;-85
2022/02/20 16:56:29;;;;;;;1.30;0.60;;;10.30;94.30;;;;;;4963122;28;20043;-84
2022/02/20 16:58:57;;;;;;;1.40;0.55;;;10.20;94.30;;;;;;4972670;28;20128;-88
2022/02/20 17:01:28;;;;;;;1.83;0.50;;;10.20;94.40;;;;;;4967040;28;20086;-89
2022/02/20 17:03:56;;;;;;;1.23;0.50;;;10.20;94.30;;;;;;4966521;28;20066;-86
2022/02/20 17:06:25;;;;;;;2.42;0.65;;;10.20;94.30;;;;;;4958397;29;20055;-86
2022/02/20 17:08:53;;;;;;;1.45;0.50;;;10.20;94.30;;;;;;4968489;28;20046;-86
2022/02/20 17:11:21;;;;;;;1.50;0.50;;;10.20;94.30;;;;;;4963783;28;20058;-82
2022/02/20 17:13:48;;;;;;;2.55;0.85;;;10.20;94.30;;;;;;4965426;28;20051;-83
2022/02/20 17:16:15;;;;;;;1.55;0.60;;;10.20;94.30;;;;;;4965553;28;20051;-83
2022/02/20 17:18:44;;;;;;;2.10;0.60;;;10.10;94.30;;;;;;4964550;28;20067;-83
2022/02/20 17:21:11;;;;;;;3.13;0.82;;;10.20;94.30;;;;;;4969769;28;20059;-82
2022/02/20 17:23:38;;;;;;;6.88;3.00;;;10.10;94.20;;;;;;4956187;28;20069;-83
2022/02/20 17:26:06;;;;;;;11.70;4.60;;;10.20;94.20;;;;;;4959067;28;20166;-80
2022/02/20 17:28:34;;;;;;;2.60;0.82;;;10.20;94.10;;;;;;4965453;28;20046;-79
2022/02/20 17:31:04;;;;;;;1.67;0.50;;;10.20;94.30;;;;;;4954311;28;20469;-82
2022/02/20 17:33:31;;;;;;;1.48;0.50;;;10.20;94.00;;;;;;4964827;28;20136;-79
2022/02/20 17:36:00;;;;;;;1.20;0.50;;;10.20;94.00;;;;;;4950945;28;20098;-82
2022/02/20 17:38:27;;;;;;;2.13;0.60;;;10.20;94.00;;;;;;4966037;28;20131;-80
2022/02/20 17:40:54;;;;;;;1.77;0.50;;;10.30;94.10;;;;;;4964905;28;20154;-83
2022/02/20 17:43:21;;;;;;;2.15;0.45;;;10.20;94.10;;;;;;4967536;28;20564;-87
2022/02/20 17:45:48;;;;;;;0.98;0.50;;;10.20;94.00;;;;;;4969489;28;20051;-89
2022/02/20 17:48:16;;;;;;;1.13;0.50;;;10.20;94.10;;;;;;4963894;28;20130;-91
2022/02/20 17:50:43;;;;;;;1.23;0.50;;;10.20;94.10;;;;;;4965061;28;20054;-83
2022/02/20 17:53:11;;;;;;;1.17;0.50;;;10.30;94.10;;;;;;4967603;28;20047;-83
2022/02/20 17:55:38;;;;;;;2.55;0.75;;;10.10;94.10;;;;;;4960911;28;20055;-83
2022/02/20 17:58:07;;;;;;;2.67;0.60;;;10.10;94.10;;;;;;4954428;29;20142;-83
2022/02/20 18:00:35;;;;;;;1.52;0.60;;;10.20;94.20;;;;;;4965771;28;20486;-81
2022/02/20 18:03:03;;;;;;;1.40;0.55;;;10.20;94.20;;;;;;4954785;28;20051;-79
2022/02/20 18:05:30;;;;;;;2.17;0.95;;;10.20;94.20;;;;;;4954694;28;20059;-82
2022/02/20 18:07:58;;;;;;;0.55;0.30;;;10.20;94.20;;;;;;4970715;28;20133;-80
2022/02/20 18:10:28;;;;;;;2.33;0.60;;;10.20;94.20;;;;;;4964520;28;20122;-78
2022/02/20 18:12:55;;;;;;;2.28;0.60;;;10.20;94.10;;;;;;4962820;28;20047;-79
2022/02/20 18:15:23;;;;;;;1.77;0.63;;;10.10;94.10;;;;;;4968838;28;20055;-79
2022/02/20 18:17:53;;;;;;;2.50;0.80;;;10.20;94.20;;;;;;4973557;28;20054;-80
2022/02/20 18:20:20;;;;;;;1.80;0.60;;;10.10;94.20;;;;;;4960476;28;20059;-80
2022/02/20 18:22:50;;;;;;;1.58;0.50;;;10.20;94.20;;;;;;4963475;28;20133;-79
2022/02/20 18:25:19;;;;;;;2.55;1.00;;;10.20;94.20;;;;;;4965992;28;20238;-81
2022/02/20 18:27:50;;;;;;;5.63;2.55;;;10.20;94.10;;;;;;4964472;28;20054;-85
2022/02/20 18:30:20;;;;;;;2.55;0.80;;;10.20;94.20;;;;;;4971576;28;20082;-84
2022/02/20 18:32:49;;;;;;;1.95;0.70;;;10.20;94.20;;;;;;4971608;28;20130;-84
2022/02/20 18:35:17;;;;;;;2.22;0.82;;;10.20;94.20;;;;;;4955188;28;20445;-85
2022/02/20 18:37:45;;;;;;;2.53;0.70;;;10.20;94.20;;;;;;4972059;28;20137;-84
2022/02/20 18:40:17;;;;;;;1.38;0.50;;;10.30;94.20;;;;;;4972573;28;20055;-85
2022/02/20 18:42:48;;;;;;;2.42;0.88;;;10.30;94.20;;;;;;4972949;28;20133;-83
2022/02/20 18:45:16;;;;;;;1.65;0.50;;;10.30;94.20;;;;;;4965992;28;20051;-84
2022/02/20 18:47:43;;;;;;;1.92;0.50;;;10.20;94.20;;;;;;4972046;28;20133;-86
2022/02/20 18:50:11;;;;;;;1.98;0.70;;;10.30;94.20;;;;;;4958516;28;20071;-85
2022/02/20 18:52:38;;;;;;;1.42;0.50;;;10.30;94.10;;;;;;4963284;28;20061;-83
2022/02/20 18:55:07;;;;;;;6.25;2.80;;;10.30;94.00;;;;;;4959847;28;20051;-83
2022/02/20 18:57:35;;;;;;;2.20;0.80;;;10.20;94.00;;;;;;4954338;28;20047;-83
2022/02/20 19:00:08;;;;;;;1.40;0.50;;;10.30;94.00;;;;;;4953169;29;20129;-83
2022/02/20 19:02:35;;;;;;;1.83;0.60;;;10.30;93.90;;;;;;4962513;28;20138;-82
2022/02/20 19:05:03;;;;;;;2.67;0.70;;;10.30;93.90;;;;;;4972368;28;20674;-82
2022/02/20 19:07:30;;;;;;;1.52;0.40;;;10.30;93.90;;;;;;4970759;28;20047;-83
2022/02/20 19:09:59;;;;;;;3.10;0.60;;;10.30;93.80;;;;;;4970520;28;20134;-84
2022/02/20 19:12:26;;;;;;;1.15;0.43;;;10.30;93.70;;;;;;4970491;28;20113;-80
2022/02/20 19:14:53;;;;;;;1.35;0.55;;;10.30;93.70;;;;;;4972160;28;20085;-81
2022/02/20 19:17:22;;;;;;;0.98;0.45;;;10.30;93.70;;;;;;4965500;28;20527;-81
2022/02/20 19:19:50;;;;;;;1.95;0.60;;;10.40;93.70;;;;;;4952402;28;20134;-81
2022/02/20 19:22:17;;;;;;;2.78;0.60;;;10.30;93.60;;;;;;4952591;29;20524;-82